createdAt,value
2023-04-15T00:04:24.450Z,7.5
2023-04-15T00:19:24.367Z,7.5
2023-04-15T00:34:24.367Z,7.5
2023-04-15T00:49:24.398Z,7.4
2023-04-15T01:04:24.440Z,7.3
2023-04-15T01:19:24.344Z,7.4
2023-04-15T01:34:24.306Z,7.4
2023-04-15T01:49:24.356Z,7.5
2023-04-15T02:04:24.255Z,7.4
2023-04-15T02:19:24.331Z,7.5
2023-04-15T02:34:24.253Z,7.4
2023-04-15T02:49:24.267Z,7.4
2023-04-15T03:04:24.203Z,7.3
2023-04-15T03:19:24.252Z,7.3
2023-04-15T03:34:24.154Z,7.3
2023-04-15T03:49:24.218Z,7.3
2023-04-15T04:04:24.387Z,7.3
2023-04-15T04:19:24.195Z,7.3
2023-04-15T04:34:24.133Z,7.2
2023-04-15T04:49:24.140Z,7.3
2023-04-15T05:04:24.074Z,7.4
2023-04-15T05:19:24.079Z,7.3
2023-04-15T05:34:24.035Z,7.3
2023-04-15T05:49:24.071Z,7.2
2023-04-15T06:04:24.120Z,7.4
2023-04-15T06:19:24.038Z,7.5
2023-04-15T06:34:23.976Z,7.5
2023-04-15T06:49:24.039Z,7.6
2023-04-15T07:04:24.010Z,7.6
2023-04-15T07:19:23.986Z,7.5
2023-04-15T07:34:23.959Z,7.6
2023-04-15T07:49:23.957Z,8.1
2023-04-15T08:04:24.095Z,7.6
2023-04-15T08:19:23.922Z,7.4
2023-04-15T08:34:23.904Z,7.7
2023-04-15T08:49:23.898Z,8.2
2023-04-15T09:04:23.866Z,8.6
2023-04-15T09:19:23.901Z,9
2023-04-15T09:34:23.837Z,9.8
2023-04-15T09:49:23.911Z,9.9
2023-04-15T10:04:23.885Z,8.6
2023-04-15T10:19:23.823Z,7.4
2023-04-15T10:34:23.737Z,7.6
2023-04-15T10:49:23.774Z,7.8
2023-04-15T11:04:23.877Z,8.1
2023-04-15T11:19:23.735Z,9.5
2023-04-15T11:34:23.708Z,9.3
2023-04-15T11:49:23.745Z,8.4
2023-04-15T12:04:25.476Z,7.1
2023-04-15T12:19:23.669Z,6.5
2023-04-15T12:34:23.627Z,6.4
2023-04-15T12:49:23.707Z,6.8
2023-04-15T13:19:23.579Z,7.6
2023-04-15T13:34:23.586Z,7.1
2023-04-15T13:49:23.586Z,7
2023-04-15T14:04:23.723Z,6.9
2023-04-15T14:19:23.556Z,6.9
2023-04-15T14:34:23.539Z,6.7
2023-04-15T14:49:23.550Z,6.6
2023-04-15T15:04:23.559Z,6.8
2023-04-15T15:19:23.551Z,6.9
2023-04-15T15:34:23.475Z,6.9
2023-04-15T15:49:23.502Z,6.9
2023-04-15T16:04:23.818Z,7
2023-04-15T16:19:23.477Z,7
2023-04-15T16:34:23.436Z,7.2
2023-04-15T16:49:23.434Z,7.3
2023-04-15T17:04:23.553Z,7.4
2023-04-15T17:19:23.415Z,7.3
2023-04-15T17:34:23.371Z,7.2
2023-04-15T17:49:23.376Z,7.2
2023-04-15T18:04:26.342Z,7.1
2023-04-15T18:19:23.350Z,7.1
2023-04-15T18:34:23.315Z,7.1
2023-04-15T18:49:23.345Z,7
2023-04-15T19:04:23.311Z,7
2023-04-15T19:19:23.318Z,7.1
2023-04-15T19:34:23.234Z,7.2
2023-04-15T19:49:23.284Z,7.3
2023-04-15T20:04:23.382Z,7.5
2023-04-15T20:19:23.263Z,7.5
2023-04-15T20:34:23.172Z,7.4
2023-04-15T20:49:23.218Z,7.3
2023-04-15T21:04:23.146Z,7.4
2023-04-15T21:19:23.206Z,7.4
2023-04-15T21:34:23.154Z,7.4
2023-04-15T21:49:25.350Z,7.4
2023-04-15T22:04:23.255Z,7.3
2023-04-15T22:19:23.173Z,7.3
2023-04-15T22:34:23.096Z,7.1
2023-04-15T22:49:23.103Z,6.9
2023-04-15T23:04:26.054Z,6.9
2023-04-15T23:19:23.067Z,6.7
2023-04-15T23:34:23.025Z,6.7
2023-04-15T23:49:23.088Z,6.6
